sensor_id;sensor_type;location;lat;lon;timestamp;pressure;altitude;pressure_sealevel;temperature;humidity
54194;BME280;40102;50.906;6.972;2023-01-27T00:00:04;101587.38;;;3.43;95.38
54194;BME280;40102;50.906;6.972;2023-01-27T00:02:30;101590.03;;;3.43;95.45
54194;BME280;40102;50.906;6.972;2023-01-27T00:04:56;101578.56;;;3.43;95.25
54194;BME280;40102;50.906;6.972;2023-01-27T00:07:21;101579.50;;;3.39;94.97
54194;BME280;40102;50.906;6.972;2023-01-27T00:09:47;101590.03;;;3.42;94.90
54194;BME280;40102;50.906;6.972;2023-01-27T00:12:23;101582.13;;;3.40;94.83
54194;BME280;40102;50.906;6.972;2023-01-27T00:15:09;101583.88;;;3.41;94.67
54194;BME280;40102;50.906;6.972;2023-01-27T00:17:34;101589.13;;;3.44;94.58
54194;BME280;40102;50.906;6.972;2023-01-27T00:20:00;101588.25;;;3.42;94.39
54194;BME280;40102;50.906;6.972;2023-01-27T00:22:26;101586.50;;;3.41;93.98
54194;BME280;40102;50.906;6.972;2023-01-27T00:25:10;101594.44;;;3.41;93.96
54194;BME280;40102;50.906;6.972;2023-01-27T00:27:35;101593.56;;;3.42;93.93
54194;BME280;40102;50.906;6.972;2023-01-27T00:30:01;101589.16;;;3.41;93.70
54194;BME280;40102;50.906;6.972;2023-01-27T00:32:29;101594.44;;;3.43;93.75
54194;BME280;40102;50.906;6.972;2023-01-27T00:35:13;101589.13;;;3.43;93.57
54194;BME280;40102;50.906;6.972;2023-01-27T00:37:44;101595.31;;;3.43;93.44
54194;BME280;40102;50.906;6.972;2023-01-27T00:40:12;101592.69;;;3.42;93.16
54194;BME280;40102;50.906;6.972;2023-01-27T00:42:37;101590.94;;;3.41;92.90
54194;BME280;40102;50.906;6.972;2023-01-27T00:45:04;101599.72;;;3.43;92.61
54194;BME280;40102;50.906;6.972;2023-01-27T00:47:48;101597.06;;;3.44;92.68
54194;BME280;40102;50.906;6.972;2023-01-27T00:50:13;101601.47;;;3.44;92.46
54194;BME280;40102;50.906;6.972;2023-01-27T00:52:39;101596.19;;;3.42;92.63
54194;BME280;40102;50.906;6.972;2023-01-27T00:55:06;101593.53;;;3.44;92.77
54194;BME280;40102;50.906;6.972;2023-01-27T00:57:34;101599.72;;;3.43;92.39
54194;BME280;40102;50.906;6.972;2023-01-27T01:00:00;101590.06;;;3.39;92.16
54194;BME280;40102;50.906;6.972;2023-01-27T01:02:25;101600.63;;;3.40;92.24
54194;BME280;40102;50.906;6.972;2023-01-27T01:04:50;101606.78;;;3.41;92.14
54194;BME280;40102;50.906;6.972;2023-01-27T01:07:16;101599.78;;;3.38;92.06
54194;BME280;40102;50.906;6.972;2023-01-27T01:09:41;101600.63;;;3.42;92.09
54194;BME280;40102;50.906;6.972;2023-01-27T01:12:06;101605.00;;;3.43;91.87
54194;BME280;40102;50.906;6.972;2023-01-27T01:14:32;101614.72;;;3.41;92.02
54194;BME280;40102;50.906;6.972;2023-01-27T01:16:57;101617.38;;;3.41;92.01
54194;BME280;40102;50.906;6.972;2023-01-27T01:19:23;101612.06;;;3.44;92.00
54194;BME280;40102;50.906;6.972;2023-01-27T01:21:48;101617.34;;;3.42;91.86
54194;BME280;40102;50.906;6.972;2023-01-27T01:24:14;101627.94;;;3.42;91.88
54194;BME280;40102;50.906;6.972;2023-01-27T01:26:40;101627.91;;;3.44;91.72
54194;BME280;40102;50.906;6.972;2023-01-27T01:29:05;101631.44;;;3.44;91.68
54194;BME280;40102;50.906;6.972;2023-01-27T01:31:30;101630.53;;;3.45;91.55
54194;BME280;40102;50.906;6.972;2023-01-27T01:33:56;101628.78;;;3.46;91.50
54194;BME280;40102;50.906;6.972;2023-01-27T01:36:21;101632.28;;;3.46;91.48
54194;BME280;40102;50.906;6.972;2023-01-27T01:38:47;101641.13;;;3.45;91.45
54194;BME280;40102;50.906;6.972;2023-01-27T01:41:17;101640.22;;;3.46;91.13
54194;BME280;40102;50.906;6.972;2023-01-27T01:43:42;101627.88;;;3.47;91.07
54194;BME280;40102;50.906;6.972;2023-01-27T01:46:09;101631.41;;;3.47;90.54
54194;BME280;40102;50.906;6.972;2023-01-27T01:48:36;101640.22;;;3.46;90.11
54194;BME280;40102;50.906;6.972;2023-01-27T01:59:06;101630.59;;;3.42;89.26
54194;BME280;40102;50.906;6.972;2023-01-27T02:01:32;101623.56;;;3.40;89.21
54194;BME280;40102;50.906;6.972;2023-01-27T02:03:59;101626.16;;;3.43;88.96
54194;BME280;40102;50.906;6.972;2023-01-27T02:06:27;101626.16;;;3.44;88.91
54194;BME280;40102;50.906;6.972;2023-01-27T02:08:53;101628.78;;;3.44;88.83
54194;BME280;40102;50.906;6.972;2023-01-27T02:11:19;101634.09;;;3.44;88.73
54194;BME280;40102;50.906;6.972;2023-01-27T02:13:44;101627.94;;;3.42;88.67
54194;BME280;40102;50.906;6.972;2023-01-27T02:16:10;101639.38;;;3.43;88.73
54194;BME280;40102;50.906;6.972;2023-01-27T02:18:39;101642.03;;;3.44;88.69
54194;BME280;40102;50.906;6.972;2023-01-27T02:21:05;101635.84;;;3.45;88.97
54194;BME280;40102;50.906;6.972;2023-01-27T02:23:47;101641.09;;;3.48;88.77
54194;BME280;40102;50.906;6.972;2023-01-27T02:26:31;101634.94;;;3.48;88.63
54194;BME280;40102;50.906;6.972;2023-01-27T02:29:01;101640.19;;;3.49;88.36
54194;BME280;40102;50.906;6.972;2023-01-27T02:31:27;101633.16;;;3.47;88.22
54194;BME280;40102;50.906;6.972;2023-01-27T02:33:58;101635.81;;;3.47;88.33
54194;BME280;40102;50.906;6.972;2023-01-27T02:36:26;101646.41;;;3.47;88.41
54194;BME280;40102;50.906;6.972;2023-01-27T02:38:54;101632.28;;;3.46;88.42
54194;BME280;40102;50.906;6.972;2023-01-27T02:41:30;101638.44;;;3.48;88.43
54194;BME280;40102;50.906;6.972;2023-01-27T02:43:56;101636.66;;;3.50;88.31
54194;BME280;40102;50.906;6.972;2023-01-27T02:46:22;101641.09;;;3.48;88.12
54194;BME280;40102;50.906;6.972;2023-01-27T02:48:47;101640.22;;;3.48;88.40
54194;BME280;40102;50.906;6.972;2023-01-27T02:51:13;101637.50;;;3.52;88.21
54194;BME280;40102;50.906;6.972;2023-01-27T02:53:39;101638.38;;;3.53;88.20
54194;BME280;40102;50.906;6.972;2023-01-27T02:56:05;101640.16;;;3.52;88.00
54194;BME280;40102;50.906;6.972;2023-01-27T02:58:31;101647.19;;;3.53;88.07
54194;BME280;40102;50.906;6.972;2023-01-27T03:00:56;101642.81;;;3.52;87.97
54194;BME280;40102;50.906;6.972;2023-01-27T03:03:21;101651.63;;;3.53;88.04
54194;BME280;40102;50.906;6.972;2023-01-27T03:05:47;101646.34;;;3.51;87.94
54194;BME280;40102;50.906;6.972;2023-01-27T03:08:15;101646.34;;;3.51;87.93
54194;BME280;40102;50.906;6.972;2023-01-27T03:10:41;101644.59;;;3.50;87.86
54194;BME280;40102;50.906;6.972;2023-01-27T03:13:06;101657.81;;;3.52;87.65
54194;BME280;40102;50.906;6.972;2023-01-27T03:15:31;101647.28;;;3.47;87.52
54194;BME280;40102;50.906;6.972;2023-01-27T03:18:16;101656.94;;;3.50;87.36
54194;BME280;40102;50.906;6.972;2023-01-27T03:20:44;101654.28;;;3.51;87.34
54194;BME280;40102;50.906;6.972;2023-01-27T03:23:10;101655.19;;;3.50;87.32
54194;BME280;40102;50.906;6.972;2023-01-27T03:25:40;101649.00;;;3.51;87.15
54194;BME280;40102;50.906;6.972;2023-01-27T03:28:05;101652.50;;;3.52;87.05
54194;BME280;40102;50.906;6.972;2023-01-27T03:30:31;101657.81;;;3.52;87.23
54194;BME280;40102;50.906;6.972;2023-01-27T03:32:56;101657.81;;;3.52;86.72
54194;BME280;40102;50.906;6.972;2023-01-27T03:35:22;101656.94;;;3.51;86.82
54194;BME280;40102;50.906;6.972;2023-01-27T03:37:48;101660.47;;;3.50;86.60
54194;BME280;40102;50.906;6.972;2023-01-27T03:40:33;101661.31;;;3.52;86.50
54194;BME280;40102;50.906;6.972;2023-01-27T03:43:16;101660.44;;;3.52;86.30
54194;BME280;40102;50.906;6.972;2023-01-27T03:46:01;101663.09;;;3.50;86.09
54194;BME280;40102;50.906;6.972;2023-01-27T03:48:50;101665.78;;;3.49;85.81
54194;BME280;40102;50.906;6.972;2023-01-27T03:51:16;101672.81;;;3.50;85.76
54194;BME280;40102;50.906;6.972;2023-01-27T03:53:42;101666.66;;;3.49;85.63
54194;BME280;40102;50.906;6.972;2023-01-27T03:56:08;101660.47;;;3.49;85.41
54194;BME280;40102;50.906;6.972;2023-01-27T03:58:35;101666.66;;;3.49;85.31
54194;BME280;40102;50.906;6.972;2023-01-27T04:01:18;101665.75;;;3.52;85.28
54194;BME280;40102;50.906;6.972;2023-01-27T04:03:44;101661.31;;;3.54;85.33
54194;BME280;40102;50.906;6.972;2023-01-27T04:06:30;101663.09;;;3.52;85.10
54194;BME280;40102;50.906;6.972;2023-01-27T04:11:48;101671.03;;;3.52;85.08
54194;BME280;40102;50.906;6.972;2023-01-27T04:14:21;101670.13;;;3.53;85.04
54194;BME280;40102;50.906;6.972;2023-01-27T04:16:48;101667.47;;;3.54;84.94
54194;BME280;40102;50.906;6.972;2023-01-27T04:19:14;101667.47;;;3.54;84.95
54194;BME280;40102;50.906;6.972;2023-01-27T04:21:40;101664.81;;;3.56;84.73
54194;BME280;40102;50.906;6.972;2023-01-27T04:24:06;101666.59;;;3.54;84.85
54194;BME280;40102;50.906;6.972;2023-01-27T04:26:44;101653.38;;;3.54;84.77
54194;BME280;40102;50.906;6.972;2023-01-27T04:29:11;101673.63;;;3.56;84.85
54194;BME280;40102;50.906;6.972;2023-01-27T04:31:38;101669.22;;;3.55;84.82
54194;BME280;40102;50.906;6.972;2023-01-27T04:34:04;101667.44;;;3.56;84.68
54194;BME280;40102;50.906;6.972;2023-01-27T04:36:29;101675.38;;;3.56;84.79
54194;BME280;40102;50.906;6.972;2023-01-27T04:38:54;101673.63;;;3.55;84.81
54194;BME280;40102;50.906;6.972;2023-01-27T04:41:20;101669.25;;;3.52;84.91
54194;BME280;40102;50.906;6.972;2023-01-27T04:43:45;101672.78;;;3.53;84.86
54194;BME280;40102;50.906;6.972;2023-01-27T04:46:11;101678.94;;;3.55;84.81
54194;BME280;40102;50.906;6.972;2023-01-27T04:48:36;101673.63;;;3.55;84.90
54194;BME280;40102;50.906;6.972;2023-01-27T04:51:02;101683.34;;;3.54;84.73
54194;BME280;40102;50.906;6.972;2023-01-27T04:53:27;101678.94;;;3.55;84.84
54194;BME280;40102;50.906;6.972;2023-01-27T04:56:04;101686.00;;;3.54;84.87
54194;BME280;40102;50.906;6.972;2023-01-27T04:58:30;101680.72;;;3.53;84.99
54194;BME280;40102;50.906;6.972;2023-01-27T05:00:55;101684.25;;;3.52;84.97
54194;BME280;40102;50.906;6.972;2023-01-27T05:03:21;101680.72;;;3.51;85.01
54194;BME280;40102;50.906;6.972;2023-01-27T05:05:46;101687.75;;;3.54;85.04
54194;BME280;40102;50.906;6.972;2023-01-27T05:08:11;101690.41;;;3.54;84.93
54194;BME280;40102;50.906;6.972;2023-01-27T05:10:37;101693.91;;;3.56;84.84
54194;BME280;40102;50.906;6.972;2023-01-27T05:13:02;101698.31;;;3.55;84.80
54194;BME280;40102;50.906;6.972;2023-01-27T05:15:29;101696.56;;;3.54;84.88
54194;BME280;40102;50.906;6.972;2023-01-27T05:17:54;101700.97;;;3.55;84.85
54194;BME280;40102;50.906;6.972;2023-01-27T05:20:20;101699.22;;;3.53;84.86
54194;BME280;40102;50.906;6.972;2023-01-27T05:22:45;101703.63;;;3.54;84.97
54194;BME280;40102;50.906;6.972;2023-01-27T05:25:11;101704.50;;;3.54;84.97
54194;BME280;40102;50.906;6.972;2023-01-27T05:27:36;101697.47;;;3.52;84.91
54194;BME280;40102;50.906;6.972;2023-01-27T05:30:02;101699.22;;;3.53;84.98
54194;BME280;40102;50.906;6.972;2023-01-27T05:32:27;101702.75;;;3.53;85.08
54194;BME280;40102;50.906;6.972;2023-01-27T05:34:52;101704.50;;;3.54;85.06
54194;BME280;40102;50.906;6.972;2023-01-27T05:37:18;101697.44;;;3.56;84.91
54194;BME280;40102;50.906;6.972;2023-01-27T05:39:43;101703.59;;;3.57;84.66
54194;BME280;40102;50.906;6.972;2023-01-27T05:42:09;101711.53;;;3.57;84.82
54194;BME280;40102;50.906;6.972;2023-01-27T05:44:34;101707.13;;;3.56;84.90
54194;BME280;40102;50.906;6.972;2023-01-27T05:47:00;101715.94;;;3.58;85.01
54194;BME280;40102;50.906;6.972;2023-01-27T05:49:25;101709.78;;;3.56;85.03
54194;BME280;40102;50.906;6.972;2023-01-27T05:51:51;101708.00;;;3.56;85.15
54194;BME280;40102;50.906;6.972;2023-01-27T05:54:16;101710.66;;;3.56;85.04
54194;BME280;40102;50.906;6.972;2023-01-27T05:56:51;101722.09;;;3.58;84.97
54194;BME280;40102;50.906;6.972;2023-01-27T05:59:16;101732.69;;;3.57;85.01
54194;BME280;40102;50.906;6.972;2023-01-27T06:01:42;101726.56;;;3.53;84.78
54194;BME280;40102;50.906;6.972;2023-01-27T06:04:08;101722.13;;;3.57;85.11
54194;BME280;40102;50.906;6.972;2023-01-27T06:06:34;101728.28;;;3.57;85.15
54194;BME280;40102;50.906;6.972;2023-01-27T06:09:00;101730.91;;;3.59;85.15
54194;BME280;40102;50.906;6.972;2023-01-27T06:11:26;101735.31;;;3.58;85.23
54194;BME280;40102;50.906;6.972;2023-01-27T06:13:52;101726.50;;;3.60;85.17
54194;BME280;40102;50.906;6.972;2023-01-27T06:16:19;101715.06;;;3.57;85.02
54194;BME280;40102;50.906;6.972;2023-01-27T06:18:46;101718.56;;;3.58;85.25
54194;BME280;40102;50.906;6.972;2023-01-27T06:21:13;101717.69;;;3.57;85.06
54194;BME280;40102;50.906;6.972;2023-01-27T06:23:39;101720.34;;;3.57;85.04
54194;BME280;40102;50.906;6.972;2023-01-27T06:26:16;101730.00;;;3.60;84.92
54194;BME280;40102;50.906;6.972;2023-01-27T06:28:42;101723.84;;;3.60;85.16
54194;BME280;40102;50.906;6.972;2023-01-27T06:31:14;101726.47;;;3.61;85.24
54194;BME280;40102;50.906;6.972;2023-01-27T06:33:41;101722.97;;;3.61;85.35
54194;BME280;40102;50.906;6.972;2023-01-27T06:36:09;101727.38;;;3.60;85.25
54194;BME280;40102;50.906;6.972;2023-01-27T06:38:35;101734.41;;;3.61;85.04
54194;BME280;40102;50.906;6.972;2023-01-27T06:41:04;101732.66;;;3.60;85.40
54194;BME280;40102;50.906;6.972;2023-01-27T06:43:35;101730.00;;;3.60;85.48
54194;BME280;40102;50.906;6.972;2023-01-27T06:46:01;101733.50;;;3.64;85.56
54194;BME280;40102;50.906;6.972;2023-01-27T06:48:26;101741.44;;;3.65;85.42
54194;BME280;40102;50.906;6.972;2023-01-27T06:50:53;101742.31;;;3.64;85.24
54194;BME280;40102;50.906;6.972;2023-01-27T06:53:19;101744.94;;;3.66;85.13
54194;BME280;40102;50.906;6.972;2023-01-27T06:55:44;101742.31;;;3.64;85.18
54194;BME280;40102;50.906;6.972;2023-01-27T06:58:11;101748.47;;;3.66;85.59
54194;BME280;40102;50.906;6.972;2023-01-27T07:00:38;101743.19;;;3.65;85.75
54194;BME280;40102;50.906;6.972;2023-01-27T07:03:04;101745.84;;;3.65;85.84
54194;BME280;40102;50.906;6.972;2023-01-27T07:05:33;101746.69;;;3.67;85.68
54194;BME280;40102;50.906;6.972;2023-01-27T07:07:59;101745.81;;;3.66;85.76
54194;BME280;40102;50.906;6.972;2023-01-27T07:10:25;101748.47;;;3.66;85.65
54194;BME280;40102;50.906;6.972;2023-01-27T07:12:50;101751.97;;;3.68;85.69
54194;BME280;40102;50.906;6.972;2023-01-27T07:15:16;101751.13;;;3.66;85.71
54194;BME280;40102;50.906;6.972;2023-01-27T07:17:41;101755.47;;;3.70;85.56
54194;BME280;40102;50.906;6.972;2023-01-27T07:20:09;101756.38;;;3.68;85.33
54194;BME280;40102;50.906;6.972;2023-01-27T07:22:35;101753.75;;;3.66;85.39
54194;BME280;40102;50.906;6.972;2023-01-27T07:25:01;101768.72;;;3.69;85.40
54194;BME280;40102;50.906;6.972;2023-01-27T07:27:27;101766.09;;;3.69;85.13
54194;BME280;40102;50.906;6.972;2023-01-27T07:36:47;101757.38;;;7.08;91.43
54194;BME280;40102;50.906;6.972;2023-01-27T07:39:13;101758.13;;;7.80;91.24
54194;BME280;40102;50.906;6.972;2023-01-27T07:41:38;101748.81;;;8.26;87.22
54194;BME280;40102;50.906;6.972;2023-01-27T07:44:04;101745.97;;;8.61;83.71
54194;BME280;40102;50.906;6.972;2023-01-27T07:46:29;101752.25;;;8.88;80.10
54194;BME280;40102;50.906;6.972;2023-01-27T07:48:54;101767.28;;;9.17;77.21
54194;BME280;40102;50.906;6.972;2023-01-27T07:51:20;101755.38;;;9.27;74.78
54194;BME280;40102;50.906;6.972;2023-01-27T07:53:45;101769.03;;;9.45;72.61
54194;BME280;40102;50.906;6.972;2023-01-27T07:56:11;101758.19;;;9.49;70.83
54194;BME280;40102;50.906;6.972;2023-01-27T07:58:37;101764.03;;;9.60;69.89
54194;BME280;40102;50.906;6.972;2023-01-27T08:01:10;101758.63;;;9.62;68.83
54194;BME280;40102;50.906;6.972;2023-01-27T08:03:36;101762.03;;;9.67;67.86
54194;BME280;40102;50.906;6.972;2023-01-27T08:06:06;101762.84;;;9.69;67.28
54194;BME280;40102;50.906;6.972;2023-01-27T08:08:32;101765.97;;;9.30;65.30
54194;BME280;40102;50.906;6.972;2023-01-27T08:11:02;101756.28;;;8.44;64.84
54194;BME280;40102;50.906;6.972;2023-01-27T08:13:28;101780.34;;;7.79;66.43
54194;BME280;40102;50.906;6.972;2023-01-27T08:16:00;101769.94;;;7.02;68.29
54194;BME280;40102;50.906;6.972;2023-01-27T08:18:35;101786.06;;;6.57;70.34
54194;BME280;40102;50.906;6.972;2023-01-27T08:21:03;101764.97;;;6.08;72.00
54194;BME280;40102;50.906;6.972;2023-01-27T08:23:31;101769.00;;;5.82;73.15
54194;BME280;40102;50.906;6.972;2023-01-27T08:25:59;101772.06;;;5.61;73.96
54194;BME280;40102;50.906;6.972;2023-01-27T08:28:27;101771.47;;;5.44;74.88
54194;BME280;40102;50.906;6.972;2023-01-27T08:30:52;101773.47;;;5.31;75.66
54194;BME280;40102;50.906;6.972;2023-01-27T08:33:24;101778.06;;;5.21;76.02
54194;BME280;40102;50.906;6.972;2023-01-27T08:35:52;101766.00;;;5.04;76.59
54194;BME280;40102;50.906;6.972;2023-01-27T08:38:18;101785.44;;;5.06;77.28
54194;BME280;40102;50.906;6.972;2023-01-27T08:40:47;101791.69;;;5.02;77.74
54194;BME280;40102;50.906;6.972;2023-01-27T08:43:23;101774.31;;;4.82;78.17
54194;BME280;40102;50.906;6.972;2023-01-27T08:45:51;101803.34;;;4.90;78.56
54194;BME280;40102;50.906;6.972;2023-01-27T08:48:22;101788.47;;;4.81;78.63
54194;BME280;40102;50.906;6.972;2023-01-27T08:50:50;101793.81;;;4.78;78.85
54194;BME280;40102;50.906;6.972;2023-01-27T08:53:15;101797.25;;;4.85;79.04
54194;BME280;40102;50.906;6.972;2023-01-27T08:55:41;101804.34;;;4.83;79.35
54194;BME280;40102;50.906;6.972;2023-01-27T08:58:08;101795.59;;;4.76;79.61
54194;BME280;40102;50.906;6.972;2023-01-27T09:00:44;101802.63;;;4.79;79.67
54194;BME280;40102;50.906;6.972;2023-01-27T09:03:10;101791.22;;;4.74;79.73
54194;BME280;40102;50.906;6.972;2023-01-27T09:05:36;101781.59;;;4.68;79.90
54194;BME280;40102;50.906;6.972;2023-01-27T09:08:02;101779.84;;;4.66;79.96
54194;BME280;40102;50.906;6.972;2023-01-27T09:10:38;101774.66;;;4.60;80.35
54194;BME280;40102;50.906;6.972;2023-01-27T09:13:04;101791.34;;;4.66;80.38
54194;BME280;40102;50.906;6.972;2023-01-27T09:15:30;101789.56;;;4.67;80.64
54194;BME280;40102;50.906;6.972;2023-01-27T09:17:58;101782.56;;;4.61;80.92
54194;BME280;40102;50.906;6.972;2023-01-27T09:20:23;101801.97;;;4.63;80.81
54194;BME280;40102;50.906;6.972;2023-01-27T09:22:49;101789.63;;;4.62;80.76
54194;BME280;40102;50.906;6.972;2023-01-27T09:25:15;101797.56;;;4.62;80.74
54194;BME280;40102;50.906;6.972;2023-01-27T09:27:42;101780.84;;;4.59;80.82
54194;BME280;40102;50.906;6.972;2023-01-27T09:30:12;101809.81;;;4.71;80.64
54194;BME280;40102;50.906;6.972;2023-01-27T09:32:38;101810.75;;;4.68;80.84
54194;BME280;40102;50.906;6.972;2023-01-27T09:35:03;101802.03;;;4.60;80.76
54194;BME280;40102;50.906;6.972;2023-01-27T09:37:31;101798.44;;;4.64;81.10
54194;BME280;40102;50.906;6.972;2023-01-27T09:40:01;101824.84;;;4.70;81.23
54194;BME280;40102;50.906;6.972;2023-01-27T09:45:41;101818.66;;;4.70;81.34
54194;BME280;40102;50.906;6.972;2023-01-27T10:00:24;101846.91;;;4.72;81.31
54194;BME280;40102;50.906;6.972;2023-01-27T10:03:22;101854.81;;;4.75;81.27
54194;BME280;40102;50.906;6.972;2023-01-27T10:08:41;101853.09;;;4.73;81.30
54194;BME280;40102;50.906;6.972;2023-01-27T10:14:47;101867.22;;;4.73;81.64
54194;BME280;40102;50.906;6.972;2023-01-27T10:17:29;101854.94;;;4.66;81.43
54194;BME280;40102;50.906;6.972;2023-01-27T10:25:38;101869.09;;;4.65;81.79
54194;BME280;40102;50.906;6.972;2023-01-27T10:28:14;101860.34;;;4.59;82.04
54194;BME280;40102;50.906;6.972;2023-01-27T10:30:54;101849.75;;;4.57;82.28
54194;BME280;40102;50.906;6.972;2023-01-27T10:36:28;101851.56;;;4.53;82.53
54194;BME280;40102;50.906;6.972;2023-01-27T10:42:09;101855.97;;;4.56;82.73
54194;BME280;40102;50.906;6.972;2023-01-27T10:49:54;101860.34;;;4.57;82.74
54194;BME280;40102;50.906;6.972;2023-01-27T10:52:25;101865.56;;;4.63;82.89
54194;BME280;40102;50.906;6.972;2023-01-27T10:54:54;101861.16;;;4.64;83.22
54194;BME280;40102;50.906;6.972;2023-01-27T10:57:29;101852.41;;;4.57;83.08
54194;BME280;40102;50.906;6.972;2023-01-27T11:00:04;101848.00;;;4.56;82.95
54194;BME280;40102;50.906;6.972;2023-01-27T11:02:36;101853.38;;;4.50;83.15
54194;BME280;40102;50.906;6.972;2023-01-27T11:05:07;101850.75;;;4.48;83.09
54194;BME280;40102;50.906;6.972;2023-01-27T11:07:42;101860.41;;;4.54;83.30
54194;BME280;40102;50.906;6.972;2023-01-27T11:10:17;101855.13;;;4.51;83.21
54194;BME280;40102;50.906;6.972;2023-01-27T11:12:53;101835.78;;;4.46;83.27
54194;BME280;40102;50.906;6.972;2023-01-27T11:15:28;101852.44;;;4.55;83.07
54194;BME280;40102;50.906;6.972;2023-01-27T11:17:59;101849.81;;;4.54;83.05
54194;BME280;40102;50.906;6.972;2023-01-27T11:25:53;101833.91;;;4.54;82.72
54194;BME280;40102;50.906;6.972;2023-01-27T11:28:54;101833.94;;;4.51;82.85
54194;BME280;40102;50.906;6.972;2023-01-27T11:36:58;101833.03;;;4.52;82.20
54194;BME280;40102;50.906;6.972;2023-01-27T11:39:29;101823.34;;;4.51;82.30
54194;BME280;40102;50.906;6.972;2023-01-27T11:41:56;101818.97;;;4.47;82.29
54194;BME280;40102;50.906;6.972;2023-01-27T11:44:26;101828.59;;;4.55;82.29
54194;BME280;40102;50.906;6.972;2023-01-27T11:46:53;101806.56;;;4.50;82.03
54194;BME280;40102;50.906;6.972;2023-01-27T11:49:29;101808.34;;;4.50;82.32
54194;BME280;40102;50.906;6.972;2023-01-27T11:52:00;101825.84;;;4.62;82.21
54194;BME280;40102;50.906;6.972;2023-01-27T11:54:34;101821.38;;;4.65;82.23
54194;BME280;40102;50.906;6.972;2023-01-27T11:57:03;101817.91;;;4.60;81.81
54194;BME280;40102;50.906;6.972;2023-01-27T11:59:31;101827.50;;;4.69;81.60
54194;BME280;40102;50.906;6.972;2023-01-27T12:02:17;101810.81;;;4.62;80.99
54194;BME280;40102;50.906;6.972;2023-01-27T12:05:11;101805.59;;;4.56;80.71
54194;BME280;40102;50.906;6.972;2023-01-27T12:07:44;101810.81;;;4.62;80.39
54194;BME280;40102;50.906;6.972;2023-01-27T12:13:08;101816.16;;;4.61;80.64
54194;BME280;40102;50.906;6.972;2023-01-27T12:15:35;101816.09;;;4.64;80.71
54194;BME280;40102;50.906;6.972;2023-01-27T12:18:09;101800.28;;;4.59;80.95
54194;BME280;40102;50.906;6.972;2023-01-27T12:20:39;101797.63;;;4.58;81.16
54194;BME280;40102;50.906;6.972;2023-01-27T12:25:53;101792.28;;;4.62;81.04
54194;BME280;40102;50.906;6.972;2023-01-27T12:28:22;101801.00;;;4.70;80.87
54194;BME280;40102;50.906;6.972;2023-01-27T12:30:49;101791.34;;;4.65;80.87
54194;BME280;40102;50.906;6.972;2023-01-27T12:33:26;101786.88;;;4.68;80.84
54194;BME280;40102;50.906;6.972;2023-01-27T12:35:59;101789.50;;;4.70;80.27
54194;BME280;40102;50.906;6.972;2023-01-27T12:38:31;101786.88;;;4.68;79.80
54194;BME280;40102;50.906;6.972;2023-01-27T12:41:05;101790.31;;;4.75;79.62
54194;BME280;40102;50.906;6.972;2023-01-27T12:43:49;101799.97;;;4.79;79.43
54194;BME280;40102;50.906;6.972;2023-01-27T12:46:20;101783.34;;;4.69;79.33
54194;BME280;40102;50.906;6.972;2023-01-27T12:48:50;101791.25;;;4.72;79.31
54194;BME280;40102;50.906;6.972;2023-01-27T12:51:20;101790.31;;;4.76;79.29
54194;BME280;40102;50.906;6.972;2023-01-27T12:53:47;101772.72;;;4.71;79.22
54194;BME280;40102;50.906;6.972;2023-01-27T12:56:21;101769.22;;;4.69;79.63
54194;BME280;40102;50.906;6.972;2023-01-27T13:03:47;101768.25;;;4.74;79.24
54194;BME280;40102;50.906;6.972;2023-01-27T13:06:15;101769.16;;;4.72;79.39
54194;BME280;40102;50.906;6.972;2023-01-27T13:08:41;101762.09;;;4.72;79.16
54194;BME280;40102;50.906;6.972;2023-01-27T13:11:07;101762.09;;;4.72;78.97
54194;BME280;40102;50.906;6.972;2023-01-27T13:13:33;101784.03;;;4.82;79.30
54194;BME280;40102;50.906;6.972;2023-01-27T13:16:03;101776.94;;;4.84;79.39
54194;BME280;40102;50.906;6.972;2023-01-27T13:18:35;101782.34;;;4.76;79.09
54194;BME280;40102;50.906;6.972;2023-01-27T13:21:24;101777.09;;;4.73;79.03
54194;BME280;40102;50.906;6.972;2023-01-27T13:23:52;101800.81;;;4.82;79.02
54194;BME280;40102;50.906;6.972;2023-01-27T13:26:23;101778.81;;;4.77;79.00
54194;BME280;40102;50.906;6.972;2023-01-27T13:28:56;101777.94;;;4.75;79.17
54194;BME280;40102;50.906;6.972;2023-01-27T13:36:55;101800.78;;;4.84;78.41
54194;BME280;40102;50.906;6.972;2023-01-27T13:39:54;101796.41;;;4.81;78.43
54194;BME280;40102;50.906;6.972;2023-01-27T13:42:28;101794.78;;;4.71;78.17
54194;BME280;40102;50.906;6.972;2023-01-27T13:45:04;101798.34;;;4.70;78.29
54194;BME280;40102;50.906;6.972;2023-01-27T13:47:41;101800.13;;;4.68;78.75
54194;BME280;40102;50.906;6.972;2023-01-27T13:50:30;101820.34;;;4.75;79.01
54194;BME280;40102;50.906;6.972;2023-01-27T13:52:58;101800.16;;;4.67;79.25
54194;BME280;40102;50.906;6.972;2023-01-27T14:07:45;101824.88;;;4.67;79.60
54194;BME280;40102;50.906;6.972;2023-01-27T14:10:51;101830.16;;;4.70;79.53
54194;BME280;40102;50.906;6.972;2023-01-27T14:16:17;101821.28;;;4.71;79.90
54194;BME280;40102;50.906;6.972;2023-01-27T14:18:57;101808.97;;;4.69;79.65
54194;BME280;40102;50.906;6.972;2023-01-27T14:23:52;101829.97;;;4.82;79.63
54194;BME280;40102;50.906;6.972;2023-01-27T14:45:15;101839.59;;;4.90;78.73
54194;BME280;40102;50.906;6.972;2023-01-27T14:47:57;101840.53;;;4.85;79.11
54194;BME280;40102;50.906;6.972;2023-01-27T14:50:45;101834.41;;;4.82;78.99
54194;BME280;40102;50.906;6.972;2023-01-27T15:05:03;101845.66;;;4.98;77.65
54194;BME280;40102;50.906;6.972;2023-01-27T15:10:30;101851.03;;;4.93;77.50
54194;BME280;40102;50.906;6.972;2023-01-27T15:26:59;101883.53;;;5.07;77.16
54194;BME280;40102;50.906;6.972;2023-01-27T15:29:29;101878.28;;;5.03;77.14
54194;BME280;40102;50.906;6.972;2023-01-27T15:34:50;101884.47;;;5.03;77.31
54194;BME280;40102;50.906;6.972;2023-01-27T15:37:25;101885.31;;;5.05;77.26
54194;BME280;40102;50.906;6.972;2023-01-27T15:45:30;101899.47;;;5.04;77.39
54194;BME280;40102;50.906;6.972;2023-01-27T15:48:10;101900.34;;;5.05;77.37